sensor_id;sensor_type;location;lat;lon;timestamp;P1;durP1;ratioP1;P2;durP2;ratioP2
56102;SDS011;41970;48.774;9.280;2023-12-20T00:02:20;3.00;;;1.87;;
56102;SDS011;41970;48.774;9.280;2023-12-20T00:04:46;2.03;;;1.63;;
56102;SDS011;41970;48.774;9.280;2023-12-20T00:07:12;1.73;;;1.50;;
56102;SDS011;41970;48.774;9.280;2023-12-20T00:09:37;2.17;;;1.97;;
56102;SDS011;41970;48.774;9.280;2023-12-20T00:12:03;3.00;;;2.30;;
56102;SDS011;41970;48.774;9.280;2023-12-20T00:14:29;1.85;;;1.65;;
56102;SDS011;41970;48.774;9.280;2023-12-20T00:16:55;1.53;;;1.10;;
56102;SDS011;41970;48.774;9.280;2023-12-20T00:19:21;1.90;;;1.80;;
56102;SDS011;41970;48.774;9.280;2023-12-20T00:21:46;3.03;;;1.37;;
56102;SDS011;41970;48.774;9.280;2023-12-20T00:24:12;1.60;;;1.30;;
56102;SDS011;41970;48.774;9.280;2023-12-20T00:26:38;1.63;;;1.50;;
56102;SDS011;41970;48.774;9.280;2023-12-20T00:29:04;2.43;;;1.37;;
56102;SDS011;41970;48.774;9.280;2023-12-20T00:31:30;1.77;;;1.47;;
56102;SDS011;41970;48.774;9.280;2023-12-20T00:33:55;1.97;;;1.73;;
56102;SDS011;41970;48.774;9.280;2023-12-20T00:36:21;2.07;;;1.60;;
56102;SDS011;41970;48.774;9.280;2023-12-20T00:38:47;2.10;;;1.43;;
56102;SDS011;41970;48.774;9.280;2023-12-20T00:41:13;2.37;;;2.17;;
56102;SDS011;41970;48.774;9.280;2023-12-20T00:43:39;2.10;;;1.90;;
56102;SDS011;41970;48.774;9.280;2023-12-20T00:46:04;4.20;;;1.57;;
56102;SDS011;41970;48.774;9.280;2023-12-20T00:48:30;1.60;;;1.33;;
56102;SDS011;41970;48.774;9.280;2023-12-20T00:50:57;2.20;;;1.60;;
56102;SDS011;41970;48.774;9.280;2023-12-20T00:53:22;1.27;;;1.10;;
56102;SDS011;41970;48.774;9.280;2023-12-20T00:55:48;1.30;;;1.20;;
56102;SDS011;41970;48.774;9.280;2023-12-20T00:58:15;2.67;;;1.70;;
56102;SDS011;41970;48.774;9.280;2023-12-20T01:00:41;1.63;;;1.40;;
56102;SDS011;41970;48.774;9.280;2023-12-20T01:03:08;1.47;;;1.20;;
56102;SDS011;41970;48.774;9.280;2023-12-20T01:05:34;2.00;;;1.40;;
56102;SDS011;41970;48.774;9.280;2023-12-20T01:07:59;1.30;;;1.20;;
56102;SDS011;41970;48.774;9.280;2023-12-20T01:10:28;2.10;;;1.60;;
56102;SDS011;41970;48.774;9.280;2023-12-20T01:12:54;1.60;;;1.10;;
56102;SDS011;41970;48.774;9.280;2023-12-20T01:15:20;3.83;;;1.50;;
56102;SDS011;41970;48.774;9.280;2023-12-20T01:17:46;1.73;;;1.10;;
56102;SDS011;41970;48.774;9.280;2023-12-20T01:20:12;1.60;;;1.40;;
56102;SDS011;41970;48.774;9.280;2023-12-20T01:22:38;1.73;;;1.60;;
56102;SDS011;41970;48.774;9.280;2023-12-20T01:25:04;1.40;;;1.30;;
56102;SDS011;41970;48.774;9.280;2023-12-20T01:27:30;1.70;;;1.20;;
56102;SDS011;41970;48.774;9.280;2023-12-20T01:29:56;1.20;;;1.10;;
56102;SDS011;41970;48.774;9.280;2023-12-20T01:32:22;1.23;;;1.00;;
56102;SDS011;41970;48.774;9.280;2023-12-20T01:34:48;2.47;;;1.40;;
56102;SDS011;41970;48.774;9.280;2023-12-20T01:37:14;1.23;;;1.10;;
56102;SDS011;41970;48.774;9.280;2023-12-20T01:39:40;2.20;;;1.40;;
56102;SDS011;41970;48.774;9.280;2023-12-20T01:42:05;1.20;;;1.00;;
56102;SDS011;41970;48.774;9.280;2023-12-20T01:44:31;2.37;;;1.60;;
56102;SDS011;41970;48.774;9.280;2023-12-20T01:46:57;1.40;;;1.20;;
56102;SDS011;41970;48.774;9.280;2023-12-20T01:49:23;2.10;;;1.33;;
56102;SDS011;41970;48.774;9.280;2023-12-20T01:51:49;2.30;;;1.33;;
56102;SDS011;41970;48.774;9.280;2023-12-20T01:54:16;2.07;;;1.53;;
56102;SDS011;41970;48.774;9.280;2023-12-20T01:56:42;1.30;;;1.10;;
56102;SDS011;41970;48.774;9.280;2023-12-20T01:59:08;1.50;;;1.20;;
56102;SDS011;41970;48.774;9.280;2023-12-20T02:01:35;2.43;;;1.50;;
56102;SDS011;41970;48.774;9.280;2023-12-20T02:04:01;3.57;;;1.30;;
56102;SDS011;41970;48.774;9.280;2023-12-20T02:06:30;3.93;;;1.40;;
56102;SDS011;41970;48.774;9.280;2023-12-20T02:08:59;3.53;;;1.10;;
56102;SDS011;41970;48.774;9.280;2023-12-20T02:11:25;1.60;;;1.20;;
56102;SDS011;41970;48.774;9.280;2023-12-20T02:13:51;1.60;;;1.40;;
56102;SDS011;41970;48.774;9.280;2023-12-20T02:16:18;1.40;;;1.30;;
56102;SDS011;41970;48.774;9.280;2023-12-20T02:18:44;1.30;;;1.13;;
56102;SDS011;41970;48.774;9.280;2023-12-20T02:21:10;1.70;;;1.60;;
56102;SDS011;41970;48.774;9.280;2023-12-20T02:23:36;2.03;;;1.60;;
56102;SDS011;41970;48.774;9.280;2023-12-20T02:26:02;1.57;;;1.30;;
56102;SDS011;41970;48.774;9.280;2023-12-20T02:28:29;2.20;;;1.40;;
56102;SDS011;41970;48.774;9.280;2023-12-20T02:30:57;1.90;;;1.33;;
56102;SDS011;41970;48.774;9.280;2023-12-20T02:33:22;1.60;;;1.50;;
56102;SDS011;41970;48.774;9.280;2023-12-20T02:35:48;1.20;;;1.10;;
56102;SDS011;41970;48.774;9.280;2023-12-20T02:38:15;2.60;;;1.93;;
56102;SDS011;41970;48.774;9.280;2023-12-20T02:40:41;1.50;;;1.30;;
56102;SDS011;41970;48.774;9.280;2023-12-20T02:43:06;1.77;;;1.43;;
56102;SDS011;41970;48.774;9.280;2023-12-20T02:45:32;1.87;;;1.30;;
56102;SDS011;41970;48.774;9.280;2023-12-20T02:47:58;2.10;;;1.40;;
56102;SDS011;41970;48.774;9.280;2023-12-20T02:50:24;2.13;;;1.57;;
56102;SDS011;41970;48.774;9.280;2023-12-20T02:52:50;1.73;;;1.33;;
56102;SDS011;41970;48.774;9.280;2023-12-20T02:55:15;1.40;;;1.30;;
56102;SDS011;41970;48.774;9.280;2023-12-20T02:57:41;1.37;;;1.20;;
56102;SDS011;41970;48.774;9.280;2023-12-20T03:00:10;1.30;;;1.20;;
56102;SDS011;41970;48.774;9.280;2023-12-20T03:02:37;2.77;;;1.57;;
56102;SDS011;41970;48.774;9.280;2023-12-20T03:05:02;1.77;;;1.30;;
56102;SDS011;41970;48.774;9.280;2023-12-20T03:07:28;1.77;;;1.50;;
56102;SDS011;41970;48.774;9.280;2023-12-20T03:09:54;3.13;;;1.33;;
56102;SDS011;41970;48.774;9.280;2023-12-20T03:12:20;2.60;;;1.17;;
56102;SDS011;41970;48.774;9.280;2023-12-20T03:14:46;1.33;;;1.23;;
56102;SDS011;41970;48.774;9.280;2023-12-20T03:17:13;1.30;;;1.07;;
56102;SDS011;41970;48.774;9.280;2023-12-20T03:19:38;1.40;;;1.27;;
56102;SDS011;41970;48.774;9.280;2023-12-20T03:22:04;1.30;;;1.20;;
56102;SDS011;41970;48.774;9.280;2023-12-20T03:24:30;1.30;;;1.20;;
56102;SDS011;41970;48.774;9.280;2023-12-20T03:26:56;1.17;;;0.97;;
56102;SDS011;41970;48.774;9.280;2023-12-20T03:29:21;1.40;;;1.20;;
56102;SDS011;41970;48.774;9.280;2023-12-20T03:31:47;1.23;;;1.13;;
56102;SDS011;41970;48.774;9.280;2023-12-20T03:34:13;2.23;;;2.03;;
56102;SDS011;41970;48.774;9.280;2023-12-20T03:36:39;1.70;;;1.60;;
56102;SDS011;41970;48.774;9.280;2023-12-20T03:39:05;2.20;;;1.40;;
56102;SDS011;41970;48.774;9.280;2023-12-20T03:41:31;2.00;;;1.60;;
56102;SDS011;41970;48.774;9.280;2023-12-20T03:43:57;1.67;;;1.17;;
56102;SDS011;41970;48.774;9.280;2023-12-20T03:46:22;1.50;;;1.13;;
56102;SDS011;41970;48.774;9.280;2023-12-20T03:48:48;1.40;;;1.30;;
56102;SDS011;41970;48.774;9.280;2023-12-20T03:51:14;1.30;;;1.20;;
56102;SDS011;41970;48.774;9.280;2023-12-20T03:53:40;2.00;;;1.20;;
56102;SDS011;41970;48.774;9.280;2023-12-20T03:56:06;1.70;;;1.27;;
56102;SDS011;41970;48.774;9.280;2023-12-20T03:58:32;1.20;;;1.00;;
56102;SDS011;41970;48.774;9.280;2023-12-20T04:00:57;1.00;;;0.80;;
56102;SDS011;41970;48.774;9.280;2023-12-20T04:03:23;1.10;;;1.00;;
56102;SDS011;41970;48.774;9.280;2023-12-20T04:05:49;2.30;;;0.90;;
56102;SDS011;41970;48.774;9.280;2023-12-20T04:08:15;2.47;;;0.90;;
56102;SDS011;41970;48.774;9.280;2023-12-20T04:10:41;1.50;;;1.10;;
56102;SDS011;41970;48.774;9.280;2023-12-20T04:13:06;1.00;;;0.70;;
56102;SDS011;41970;48.774;9.280;2023-12-20T04:15:32;1.00;;;0.70;;
56102;SDS011;41970;48.774;9.280;2023-12-20T04:17:58;1.40;;;1.10;;
56102;SDS011;41970;48.774;9.280;2023-12-20T04:20:24;2.00;;;0.90;;
56102;SDS011;41970;48.774;9.280;2023-12-20T04:22:49;0.80;;;0.70;;
56102;SDS011;41970;48.774;9.280;2023-12-20T04:25:15;2.97;;;0.90;;
56102;SDS011;41970;48.774;9.280;2023-12-20T04:27:41;1.13;;;1.00;;
56102;SDS011;41970;48.774;9.280;2023-12-20T04:30:07;1.10;;;1.00;;
56102;SDS011;41970;48.774;9.280;2023-12-20T04:32:34;2.50;;;1.13;;
56102;SDS011;41970;48.774;9.280;2023-12-20T04:34:59;0.80;;;0.60;;
56102;SDS011;41970;48.774;9.280;2023-12-20T04:37:25;1.47;;;1.03;;
56102;SDS011;41970;48.774;9.280;2023-12-20T04:39:51;1.90;;;1.30;;
56102;SDS011;41970;48.774;9.280;2023-12-20T04:42:17;0.90;;;0.80;;
56102;SDS011;41970;48.774;9.280;2023-12-20T04:44:42;0.90;;;0.80;;
56102;SDS011;41970;48.774;9.280;2023-12-20T04:47:09;0.90;;;0.80;;
56102;SDS011;41970;48.774;9.280;2023-12-20T04:49:34;1.20;;;1.10;;
56102;SDS011;41970;48.774;9.280;2023-12-20T04:52:00;1.60;;;1.50;;
56102;SDS011;41970;48.774;9.280;2023-12-20T04:54:26;1.70;;;1.60;;
56102;SDS011;41970;48.774;9.280;2023-12-20T04:56:52;2.50;;;1.07;;
56102;SDS011;41970;48.774;9.280;2023-12-20T04:59:17;1.10;;;1.00;;
56102;SDS011;41970;48.774;9.280;2023-12-20T05:01:43;1.17;;;1.07;;
56102;SDS011;41970;48.774;9.280;2023-12-20T05:04:09;1.63;;;1.20;;
56102;SDS011;41970;48.774;9.280;2023-12-20T05:06:35;1.40;;;1.13;;
56102;SDS011;41970;48.774;9.280;2023-12-20T05:09:01;1.10;;;1.00;;
56102;SDS011;41970;48.774;9.280;2023-12-20T05:11:27;1.30;;;1.10;;
56102;SDS011;41970;48.774;9.280;2023-12-20T05:13:52;1.33;;;1.23;;
56102;SDS011;41970;48.774;9.280;2023-12-20T05:16:18;1.40;;;1.30;;
56102;SDS011;41970;48.774;9.280;2023-12-20T05:18:44;1.37;;;1.27;;
56102;SDS011;41970;48.774;9.280;2023-12-20T05:21:10;1.20;;;1.10;;
56102;SDS011;41970;48.774;9.280;2023-12-20T05:23:37;2.10;;;1.90;;
56102;SDS011;41970;48.774;9.280;2023-12-20T05:26:02;1.20;;;1.00;;
56102;SDS011;41970;48.774;9.280;2023-12-20T05:28:28;3.73;;;1.60;;
56102;SDS011;41970;48.774;9.280;2023-12-20T05:30:54;1.37;;;1.20;;
56102;SDS011;41970;48.774;9.280;2023-12-20T05:33:20;1.73;;;1.30;;
56102;SDS011;41970;48.774;9.280;2023-12-20T05:35:45;1.83;;;1.37;;
56102;SDS011;41970;48.774;9.280;2023-12-20T05:38:11;2.27;;;1.30;;
56102;SDS011;41970;48.774;9.280;2023-12-20T05:40:37;0.90;;;0.73;;
56102;SDS011;41970;48.774;9.280;2023-12-20T05:43:03;1.10;;;1.00;;
56102;SDS011;41970;48.774;9.280;2023-12-20T05:45:29;1.40;;;1.30;;
56102;SDS011;41970;48.774;9.280;2023-12-20T05:47:55;2.20;;;1.20;;
56102;SDS011;41970;48.774;9.280;2023-12-20T05:50:20;1.83;;;1.10;;
56102;SDS011;41970;48.774;9.280;2023-12-20T05:52:46;1.03;;;0.90;;
56102;SDS011;41970;48.774;9.280;2023-12-20T05:55:12;1.10;;;0.90;;
56102;SDS011;41970;48.774;9.280;2023-12-20T05:57:38;1.27;;;1.10;;
56102;SDS011;41970;48.774;9.280;2023-12-20T06:00:04;1.40;;;1.20;;
56102;SDS011;41970;48.774;9.280;2023-12-20T06:02:31;2.30;;;1.43;;
56102;SDS011;41970;48.774;9.280;2023-12-20T06:04:57;1.20;;;0.90;;
56102;SDS011;41970;48.774;9.280;2023-12-20T06:07:23;1.00;;;0.90;;
56102;SDS011;41970;48.774;9.280;2023-12-20T06:09:49;1.00;;;0.70;;
56102;SDS011;41970;48.774;9.280;2023-12-20T06:12:15;1.67;;;0.90;;
56102;SDS011;41970;48.774;9.280;2023-12-20T06:14:40;1.57;;;1.20;;
56102;SDS011;41970;48.774;9.280;2023-12-20T06:17:06;1.47;;;1.13;;
56102;SDS011;41970;48.774;9.280;2023-12-20T06:19:32;0.90;;;0.80;;
56102;SDS011;41970;48.774;9.280;2023-12-20T06:21:58;1.00;;;0.90;;
56102;SDS011;41970;48.774;9.280;2023-12-20T06:24:24;1.00;;;0.77;;
56102;SDS011;41970;48.774;9.280;2023-12-20T06:26:53;1.10;;;0.80;;
56102;SDS011;41970;48.774;9.280;2023-12-20T06:29:20;0.90;;;0.67;;
56102;SDS011;41970;48.774;9.280;2023-12-20T06:31:45;0.90;;;0.70;;
56102;SDS011;41970;48.774;9.280;2023-12-20T06:34:11;1.10;;;0.80;;
56102;SDS011;41970;48.774;9.280;2023-12-20T06:36:37;0.90;;;0.73;;
56102;SDS011;41970;48.774;9.280;2023-12-20T06:39:03;1.00;;;0.80;;
56102;SDS011;41970;48.774;9.280;2023-12-20T06:41:29;0.90;;;0.70;;
56102;SDS011;41970;48.774;9.280;2023-12-20T06:43:55;1.10;;;1.00;;
56102;SDS011;41970;48.774;9.280;2023-12-20T06:46:21;1.30;;;1.00;;
56102;SDS011;41970;48.774;9.280;2023-12-20T06:48:47;1.30;;;0.90;;
56102;SDS011;41970;48.774;9.280;2023-12-20T06:51:16;1.30;;;0.90;;
56102;SDS011;41970;48.774;9.280;2023-12-20T06:53:44;1.10;;;0.90;;
56102;SDS011;41970;48.774;9.280;2023-12-20T06:56:10;2.10;;;1.37;;
56102;SDS011;41970;48.774;9.280;2023-12-20T06:58:37;2.25;;;1.02;;
56102;SDS011;41970;48.774;9.280;2023-12-20T07:01:03;3.87;;;0.90;;
56102;SDS011;41970;48.774;9.280;2023-12-20T07:03:30;1.13;;;0.87;;
56102;SDS011;41970;48.774;9.280;2023-12-20T07:05:55;1.27;;;0.80;;
56102;SDS011;41970;48.774;9.280;2023-12-20T07:08:21;1.00;;;0.80;;
56102;SDS011;41970;48.774;9.280;2023-12-20T07:10:47;1.30;;;1.00;;
56102;SDS011;41970;48.774;9.280;2023-12-20T07:13:13;1.63;;;1.50;;
56102;SDS011;41970;48.774;9.280;2023-12-20T07:15:39;1.60;;;1.10;;
56102;SDS011;41970;48.774;9.280;2023-12-20T07:18:05;1.37;;;1.10;;
56102;SDS011;41970;48.774;9.280;2023-12-20T07:20:31;1.07;;;0.90;;
56102;SDS011;41970;48.774;9.280;2023-12-20T07:22:57;1.10;;;1.00;;
56102;SDS011;41970;48.774;9.280;2023-12-20T07:25:23;1.67;;;1.20;;
56102;SDS011;41970;48.774;9.280;2023-12-20T07:27:49;1.10;;;1.00;;
56102;SDS011;41970;48.774;9.280;2023-12-20T07:30:14;2.40;;;1.10;;
56102;SDS011;41970;48.774;9.280;2023-12-20T07:32:40;1.23;;;0.90;;
56102;SDS011;41970;48.774;9.280;2023-12-20T07:35:06;1.40;;;1.20;;
56102;SDS011;41970;48.774;9.280;2023-12-20T07:37:32;5.27;;;4.60;;
56102;SDS011;41970;48.774;9.280;2023-12-20T07:39:58;8.27;;;6.13;;
56102;SDS011;41970;48.774;9.280;2023-12-20T07:42:24;14.20;;;10.13;;
56102;SDS011;41970;48.774;9.280;2023-12-20T07:44:50;2.00;;;1.80;;
56102;SDS011;41970;48.774;9.280;2023-12-20T07:47:16;2.30;;;1.83;;
56102;SDS011;41970;48.774;9.280;2023-12-20T07:49:47;2.07;;;1.87;;
56102;SDS011;41970;48.774;9.280;2023-12-20T07:52:19;1.83;;;1.73;;
56102;SDS011;41970;48.774;9.280;2023-12-20T07:54:45;2.20;;;1.92;;
56102;SDS011;41970;48.774;9.280;2023-12-20T07:57:11;2.40;;;2.15;;
56102;SDS011;41970;48.774;9.280;2023-12-20T07:59:37;2.40;;;2.20;;
56102;SDS011;41970;48.774;9.280;2023-12-20T08:02:03;3.13;;;2.00;;
56102;SDS011;41970;48.774;9.280;2023-12-20T08:04:29;2.60;;;2.40;;
56102;SDS011;41970;48.774;9.280;2023-12-20T08:06:55;3.13;;;2.33;;
56102;SDS011;41970;48.774;9.280;2023-12-20T08:09:21;2.83;;;2.63;;
56102;SDS011;41970;48.774;9.280;2023-12-20T08:11:47;2.90;;;2.70;;
56102;SDS011;41970;48.774;9.280;2023-12-20T08:14:13;1.98;;;1.77;;
56102;SDS011;41970;48.774;9.280;2023-12-20T08:16:39;2.10;;;1.90;;
56102;SDS011;41970;48.774;9.280;2023-12-20T08:19:05;6.33;;;2.50;;
56102;SDS011;41970;48.774;9.280;2023-12-20T08:21:31;2.00;;;1.80;;
56102;SDS011;41970;48.774;9.280;2023-12-20T08:23:57;2.13;;;1.80;;
56102;SDS011;41970;48.774;9.280;2023-12-20T08:26:22;5.90;;;4.77;;
56102;SDS011;41970;48.774;9.280;2023-12-20T08:28:49;3.67;;;3.38;;
56102;SDS011;41970;48.774;9.280;2023-12-20T08:31:16;3.95;;;3.30;;
56102;SDS011;41970;48.774;9.280;2023-12-20T08:33:45;8.80;;;8.10;;
56102;SDS011;41970;48.774;9.280;2023-12-20T08:36:12;5.23;;;4.60;;
56102;SDS011;41970;48.774;9.280;2023-12-20T08:38:38;3.67;;;2.90;;
56102;SDS011;41970;48.774;9.280;2023-12-20T08:41:04;17.77;;;12.77;;
56102;SDS011;41970;48.774;9.280;2023-12-20T08:43:31;11.57;;;8.40;;
56102;SDS011;41970;48.774;9.280;2023-12-20T08:45:57;10.75;;;7.95;;
56102;SDS011;41970;48.774;9.280;2023-12-20T08:48:23;21.00;;;13.90;;
56102;SDS011;41970;48.774;9.280;2023-12-20T08:50:48;15.10;;;12.30;;
56102;SDS011;41970;48.774;9.280;2023-12-20T08:53:16;11.40;;;10.23;;
56102;SDS011;41970;48.774;9.280;2023-12-20T08:55:43;4.25;;;3.25;;
56102;SDS011;41970;48.774;9.280;2023-12-20T08:58:09;3.03;;;2.80;;
56102;SDS011;41970;48.774;9.280;2023-12-20T09:00:34;3.20;;;2.90;;
56102;SDS011;41970;48.774;9.280;2023-12-20T09:03:03;3.40;;;2.80;;
56102;SDS011;41970;48.774;9.280;2023-12-20T09:05:29;6.45;;;5.10;;
56102;SDS011;41970;48.774;9.280;2023-12-20T09:07:55;5.13;;;3.27;;
56102;SDS011;41970;48.774;9.280;2023-12-20T09:10:21;4.90;;;4.50;;
56102;SDS011;41970;48.774;9.280;2023-12-20T09:12:48;3.80;;;3.33;;
56102;SDS011;41970;48.774;9.280;2023-12-20T09:15:14;3.50;;;2.73;;
56102;SDS011;41970;48.774;9.280;2023-12-20T09:17:40;2.50;;;2.30;;
56102;SDS011;41970;48.774;9.280;2023-12-20T09:20:06;3.30;;;2.20;;
56102;SDS011;41970;48.774;9.280;2023-12-20T09:22:33;3.17;;;2.30;;
56102;SDS011;41970;48.774;9.280;2023-12-20T09:24:59;4.00;;;2.30;;
56102;SDS011;41970;48.774;9.280;2023-12-20T09:27:26;3.80;;;2.70;;
56102;SDS011;41970;48.774;9.280;2023-12-20T09:29:53;3.40;;;3.10;;
56102;SDS011;41970;48.774;9.280;2023-12-20T09:32:19;3.30;;;2.80;;
56102;SDS011;41970;48.774;9.280;2023-12-20T09:34:47;3.83;;;2.90;;
56102;SDS011;41970;48.774;9.280;2023-12-20T09:37:13;3.10;;;2.80;;
56102;SDS011;41970;48.774;9.280;2023-12-20T09:39:39;4.83;;;2.40;;
56102;SDS011;41970;48.774;9.280;2023-12-20T09:42:06;2.40;;;2.00;;
56102;SDS011;41970;48.774;9.280;2023-12-20T09:44:32;3.60;;;1.98;;
56102;SDS011;41970;48.774;9.280;2023-12-20T09:47:03;4.40;;;2.70;;
56102;SDS011;41970;48.774;9.280;2023-12-20T09:49:29;3.00;;;2.70;;
56102;SDS011;41970;48.774;9.280;2023-12-20T09:51:56;2.77;;;1.90;;
56102;SDS011;41970;48.774;9.280;2023-12-20T09:54:22;3.40;;;2.20;;
56102;SDS011;41970;48.774;9.280;2023-12-20T09:56:49;4.53;;;2.47;;
56102;SDS011;41970;48.774;9.280;2023-12-20T09:59:15;5.40;;;1.80;;
56102;SDS011;41970;48.774;9.280;2023-12-20T10:01:41;2.03;;;1.70;;
56102;SDS011;41970;48.774;9.280;2023-12-20T10:04:09;2.57;;;1.80;;
56102;SDS011;41970;48.774;9.280;2023-12-20T10:06:39;4.37;;;2.53;;
56102;SDS011;41970;48.774;9.280;2023-12-20T10:09:05;5.00;;;2.30;;
56102;SDS011;41970;48.774;9.280;2023-12-20T10:11:31;3.20;;;1.60;;
56102;SDS011;41970;48.774;9.280;2023-12-20T10:14:00;2.80;;;1.90;;
56102;SDS011;41970;48.774;9.280;2023-12-20T10:16:26;4.20;;;1.83;;
56102;SDS011;41970;48.774;9.280;2023-12-20T10:18:53;2.90;;;1.80;;
56102;SDS011;41970;48.774;9.280;2023-12-20T10:21:19;6.27;;;2.30;;
56102;SDS011;41970;48.774;9.280;2023-12-20T10:23:46;4.00;;;1.70;;
56102;SDS011;41970;48.774;9.280;2023-12-20T10:26:21;2.50;;;1.80;;
56102;SDS011;41970;48.774;9.280;2023-12-20T10:28:59;3.90;;;1.53;;
56102;SDS011;41970;48.774;9.280;2023-12-20T10:31:27;4.13;;;1.90;;
56102;SDS011;41970;48.774;9.280;2023-12-20T10:33:55;3.80;;;1.40;;
56102;SDS011;41970;48.774;9.280;2023-12-20T10:36:26;1.85;;;1.58;;
56102;SDS011;41970;48.774;9.280;2023-12-20T10:38:54;3.87;;;2.10;;
56102;SDS011;41970;48.774;9.280;2023-12-20T10:41:27;7.28;;;1.67;;
56102;SDS011;41970;48.774;9.280;2023-12-20T10:44:00;2.07;;;1.70;;
56102;SDS011;41970;48.774;9.280;2023-12-20T10:46:28;6.80;;;2.33;;
56102;SDS011;41970;48.774;9.280;2023-12-20T10:48:55;6.07;;;3.20;;
56102;SDS011;41970;48.774;9.280;2023-12-20T10:51:21;10.80;;;2.53;;
56102;SDS011;41970;48.774;9.280;2023-12-20T10:53:49;5.32;;;2.20;;
56102;SDS011;41970;48.774;9.280;2023-12-20T10:56:17;2.50;;;1.63;;
56102;SDS011;41970;48.774;9.280;2023-12-20T10:58:44;6.20;;;2.37;;
56102;SDS011;41970;48.774;9.280;2023-12-20T11:01:15;6.23;;;2.37;;
56102;SDS011;41970;48.774;9.280;2023-12-20T11:03:50;5.50;;;1.70;;
56102;SDS011;41970;48.774;9.280;2023-12-20T11:06:33;2.37;;;2.17;;
56102;SDS011;41970;48.774;9.280;2023-12-20T11:12:19;2.47;;;1.52;;
56102;SDS011;41970;48.774;9.280;2023-12-20T11:15:05;6.28;;;1.65;;
56102;SDS011;41970;48.774;9.280;2023-12-20T11:17:33;5.13;;;1.98;;
56102;SDS011;41970;48.774;9.280;2023-12-20T11:22:29;2.75;;;1.58;;
56102;SDS011;41970;48.774;9.280;2023-12-20T11:25:02;3.60;;;1.60;;
56102;SDS011;41970;48.774;9.280;2023-12-20T11:27:29;8.80;;;2.58;;
56102;SDS011;41970;48.774;9.280;2023-12-20T11:29:56;5.10;;;3.30;;
56102;SDS011;41970;48.774;9.280;2023-12-20T11:34:59;3.00;;;1.50;;
56102;SDS011;41970;48.774;9.280;2023-12-20T11:37:29;2.47;;;1.58;;
56102;SDS011;41970;48.774;9.280;2023-12-20T11:40:00;5.23;;;2.00;;
56102;SDS011;41970;48.774;9.280;2023-12-20T11:42:32;3.03;;;1.75;;
56102;SDS011;41970;48.774;9.280;2023-12-20T11:45:01;4.60;;;1.90;;
56102;SDS011;41970;48.774;9.280;2023-12-20T11:47:28;2.22;;;1.58;;
56102;SDS011;41970;48.774;9.280;2023-12-20T11:49:56;2.75;;;1.60;;
56102;SDS011;41970;48.774;9.280;2023-12-20T11:52:22;3.47;;;1.60;;
56102;SDS011;41970;48.774;9.280;2023-12-20T11:54:48;1.47;;;1.30;;
56102;SDS011;41970;48.774;9.280;2023-12-20T11:57:14;6.27;;;2.00;;
56102;SDS011;41970;48.774;9.280;2023-12-20T11:59:39;1.80;;;1.47;;
56102;SDS011;41970;48.774;9.280;2023-12-20T12:02:05;5.57;;;1.50;;
56102;SDS011;41970;48.774;9.280;2023-12-20T12:04:31;4.00;;;1.70;;
56102;SDS011;41970;48.774;9.280;2023-12-20T12:06:57;3.27;;;1.80;;
56102;SDS011;41970;48.774;9.280;2023-12-20T12:09:23;9.60;;;2.07;;
56102;SDS011;41970;48.774;9.280;2023-12-20T12:11:49;1.57;;;1.33;;
56102;SDS011;41970;48.774;9.280;2023-12-20T12:14:14;4.93;;;1.80;;
56102;SDS011;41970;48.774;9.280;2023-12-20T12:16:43;3.43;;;1.90;;
56102;SDS011;41970;48.774;9.280;2023-12-20T12:19:20;5.88;;;2.15;;
56102;SDS011;41970;48.774;9.280;2023-12-20T12:21:47;8.80;;;4.93;;
56102;SDS011;41970;48.774;9.280;2023-12-20T12:24:13;11.07;;;8.03;;
56102;SDS011;41970;48.774;9.280;2023-12-20T12:26:38;6.53;;;3.03;;
56102;SDS011;41970;48.774;9.280;2023-12-20T12:29:08;4.45;;;2.05;;
56102;SDS011;41970;48.774;9.280;2023-12-20T12:31:35;5.97;;;3.60;;
56102;SDS011;41970;48.774;9.280;2023-12-20T12:34:01;7.90;;;2.70;;
56102;SDS011;41970;48.774;9.280;2023-12-20T12:36:27;7.13;;;4.40;;
56102;SDS011;41970;48.774;9.280;2023-12-20T12:38:56;3.65;;;2.78;;
56102;SDS011;41970;48.774;9.280;2023-12-20T12:41:23;5.00;;;2.53;;
56102;SDS011;41970;48.774;9.280;2023-12-20T12:43:48;3.00;;;1.80;;
56102;SDS011;41970;48.774;9.280;2023-12-20T12:46:14;4.37;;;2.63;;
56102;SDS011;41970;48.774;9.280;2023-12-20T12:48:40;6.67;;;2.07;;
56102;SDS011;41970;48.774;9.280;2023-12-20T12:51:06;3.50;;;2.60;;
56102;SDS011;41970;48.774;9.280;2023-12-20T12:53:37;4.47;;;2.87;;
56102;SDS011;41970;48.774;9.280;2023-12-20T12:56:03;2.93;;;2.10;;
56102;SDS011;41970;48.774;9.280;2023-12-20T12:58:29;4.80;;;2.27;;
56102;SDS011;41970;48.774;9.280;2023-12-20T13:00:56;4.67;;;3.20;;
56102;SDS011;41970;48.774;9.280;2023-12-20T13:03:21;3.90;;;2.23;;
56102;SDS011;41970;48.774;9.280;2023-12-20T13:05:49;4.00;;;2.00;;
56102;SDS011;41970;48.774;9.280;2023-12-20T13:08:15;4.33;;;1.70;;
56102;SDS011;41970;48.774;9.280;2023-12-20T13:10:43;3.33;;;1.47;;
56102;SDS011;41970;48.774;9.280;2023-12-20T13:13:11;6.73;;;2.33;;
56102;SDS011;41970;48.774;9.280;2023-12-20T13:15:37;3.77;;;1.73;;
56102;SDS011;41970;48.774;9.280;2023-12-20T13:18:03;3.73;;;2.43;;
56102;SDS011;41970;48.774;9.280;2023-12-20T13:20:31;3.43;;;2.03;;
56102;SDS011;41970;48.774;9.280;2023-12-20T13:22:56;3.10;;;1.60;;
56102;SDS011;41970;48.774;9.280;2023-12-20T13:25:22;4.80;;;1.53;;
56102;SDS011;41970;48.774;9.280;2023-12-20T13:27:48;5.70;;;3.30;;
56102;SDS011;41970;48.774;9.280;2023-12-20T13:30:15;5.90;;;2.53;;
56102;SDS011;41970;48.774;9.280;2023-12-20T13:32:42;3.23;;;2.07;;
56102;SDS011;41970;48.774;9.280;2023-12-20T13:35:08;3.37;;;2.00;;
56102;SDS011;41970;48.774;9.280;2023-12-20T13:37:34;6.20;;;2.10;;
56102;SDS011;41970;48.774;9.280;2023-12-20T13:40:00;4.80;;;2.10;;
56102;SDS011;41970;48.774;9.280;2023-12-20T13:42:28;2.57;;;1.50;;
56102;SDS011;41970;48.774;9.280;2023-12-20T13:44:54;3.47;;;2.13;;
56102;SDS011;41970;48.774;9.280;2023-12-20T13:47:21;2.90;;;1.80;;
56102;SDS011;41970;48.774;9.280;2023-12-20T13:49:47;3.13;;;1.77;;
56102;SDS011;41970;48.774;9.280;2023-12-20T13:52:13;1.93;;;1.50;;
56102;SDS011;41970;48.774;9.280;2023-12-20T13:54:39;3.10;;;1.60;;
56102;SDS011;41970;48.774;9.280;2023-12-20T13:57:04;4.30;;;1.90;;
56102;SDS011;41970;48.774;9.280;2023-12-20T13:59:30;3.37;;;1.20;;
56102;SDS011;41970;48.774;9.280;2023-12-20T14:01:56;4.43;;;1.93;;
56102;SDS011;41970;48.774;9.280;2023-12-20T14:04:22;4.60;;;1.73;;
56102;SDS011;41970;48.774;9.280;2023-12-20T14:06:48;5.10;;;1.40;;
56102;SDS011;41970;48.774;9.280;2023-12-20T14:09:16;3.83;;;1.60;;
56102;SDS011;41970;48.774;9.280;2023-12-20T14:11:42;3.53;;;1.73;;
56102;SDS011;41970;48.774;9.280;2023-12-20T14:14:08;6.75;;;2.60;;
56102;SDS011;41970;48.774;9.280;2023-12-20T14:16:34;4.33;;;1.80;;
56102;SDS011;41970;48.774;9.280;2023-12-20T14:19:01;14.70;;;3.37;;
56102;SDS011;41970;48.774;9.280;2023-12-20T14:21:28;6.32;;;2.10;;
56102;SDS011;41970;48.774;9.280;2023-12-20T14:23:54;4.13;;;2.50;;
56102;SDS011;41970;48.774;9.280;2023-12-20T14:26:20;2.10;;;1.73;;
56102;SDS011;41970;48.774;9.280;2023-12-20T14:28:45;4.73;;;2.83;;
56102;SDS011;41970;48.774;9.280;2023-12-20T14:31:11;4.67;;;1.90;;
56102;SDS011;41970;48.774;9.280;2023-12-20T14:33:37;5.53;;;1.60;;
56102;SDS011;41970;48.774;9.280;2023-12-20T14:36:04;6.05;;;2.00;;
56102;SDS011;41970;48.774;9.280;2023-12-20T14:38:31;3.60;;;1.80;;
56102;SDS011;41970;48.774;9.280;2023-12-20T14:40:57;1.90;;;1.37;;
56102;SDS011;41970;48.774;9.280;2023-12-20T14:43:23;2.23;;;1.40;;
56102;SDS011;41970;48.774;9.280;2023-12-20T14:45:49;4.20;;;2.23;;
56102;SDS011;41970;48.774;9.280;2023-12-20T14:48:16;4.00;;;1.90;;
56102;SDS011;41970;48.774;9.280;2023-12-20T14:50:42;3.25;;;1.35;;
56102;SDS011;41970;48.774;9.280;2023-12-20T14:53:08;6.43;;;2.07;;